createdAt,value
2017-06-15T00:00:53.674Z,13.56
2017-06-15T00:01:48.696Z,13.68
2017-06-15T00:02:48.764Z,13.67
2017-06-15T00:03:36.803Z,13.65
2017-06-15T00:04:30.861Z,13.63
2017-06-15T00:05:19.875Z,13.63
2017-06-15T00:06:07.905Z,13.58
2017-06-15T00:07:01.974Z,13.56
2017-06-15T00:07:50.997Z,13.54
2017-06-15T00:08:40.174Z,13.52
2017-06-15T00:09:29.092Z,13.49
2017-06-15T00:10:17.176Z,13.46
2017-06-15T00:11:06.228Z,13.50
2017-06-15T00:12:00.224Z,13.49
2017-06-15T00:13:00.288Z,13.49
2017-06-15T00:14:00.292Z,13.46
2017-06-15T00:14:55.290Z,13.44
2017-06-15T00:15:55.357Z,13.38
2017-06-15T00:16:55.374Z,13.36
2017-06-15T00:17:55.440Z,13.37
2017-06-15T00:18:50.472Z,13.34
2017-06-15T00:19:38.786Z,13.34
2017-06-15T00:20:38.557Z,13.34
2017-06-15T00:21:26.562Z,13.34
2017-06-15T00:22:15.623Z,13.32
2017-06-15T00:23:04.709Z,13.36
2017-06-15T00:23:58.700Z,13.42
2017-06-15T00:24:47.778Z,13.41
2017-06-15T00:25:35.815Z,13.38
2017-06-15T00:26:23.880Z,13.36
2017-06-15T00:27:12.904Z,13.37
2017-06-15T00:28:00.908Z,13.38
2017-06-15T00:28:48.990Z,13.36
2017-06-15T00:29:38.342Z,13.28
2017-06-15T00:30:26.052Z,13.28
2017-06-15T00:31:14.082Z,13.21
2017-06-15T00:32:03.144Z,13.12
2017-06-15T00:32:51.261Z,13.08
2017-06-15T00:33:39.236Z,13.05
2017-06-15T00:34:39.558Z,13.00
2017-06-15T00:35:34.365Z,13.00
2017-06-15T00:36:34.342Z,12.98
2017-06-15T00:37:34.382Z,12.99
2017-06-15T00:38:23.455Z,12.98
2017-06-15T00:39:11.482Z,12.94
2017-06-15T00:40:06.508Z,12.90
2017-06-15T00:40:55.612Z,12.86
2017-06-15T00:41:56.594Z,12.77
2017-06-15T00:42:50.599Z,12.72
2017-06-15T00:43:39.671Z,12.72
2017-06-15T00:44:33.703Z,12.69
2017-06-15T00:45:21.757Z,12.66
2017-06-15T00:46:10.779Z,12.58
2017-06-15T00:46:58.793Z,12.60
2017-06-15T00:47:46.890Z,12.62
2017-06-15T00:48:46.872Z,12.92
2017-06-15T00:49:35.988Z,12.94
2017-06-15T00:50:23.978Z,12.96
2017-06-15T00:51:13.029Z,12.94
2017-06-15T00:52:01.055Z,12.92
2017-06-15T00:52:49.079Z,12.88
2017-06-15T00:53:38.165Z,12.83
2017-06-15T00:54:26.211Z,12.78
2017-06-15T00:55:14.287Z,12.79
2017-06-15T00:56:03.309Z,12.77
2017-06-15T00:56:51.511Z,12.76
2017-06-15T00:57:39.435Z,12.75
2017-06-15T00:58:28.424Z,12.74
2017-06-15T00:59:17.453Z,12.70
2017-06-15T01:00:06.488Z,12.63
2017-06-15T01:00:54.550Z,12.59
2017-06-15T01:01:42.898Z,12.53
2017-06-15T01:02:36.682Z,12.51
2017-06-15T01:03:25.658Z,12.50
2017-06-15T01:04:13.718Z,12.48
2017-06-15T01:05:01.781Z,12.48
2017-06-15T01:05:55.784Z,12.52
2017-06-15T01:06:43.862Z,12.56
2017-06-15T01:07:31.877Z,12.54
2017-06-15T01:08:19.970Z,12.49
2017-06-15T01:09:13.967Z,12.48
2017-06-15T01:10:03.049Z,12.44
2017-06-15T01:10:51.066Z,12.40
2017-06-15T01:11:39.087Z,12.38
2017-06-15T01:12:33.117Z,12.38
2017-06-15T01:13:27.453Z,12.34
2017-06-15T01:14:21.488Z,12.26
2017-06-15T01:15:09.293Z,12.22
2017-06-15T01:16:03.308Z,12.12
2017-06-15T01:16:52.353Z,12.06
2017-06-15T01:17:46.407Z,11.96
2017-06-15T01:18:46.457Z,11.90
2017-06-15T01:19:40.746Z,11.84
2017-06-15T01:20:40.487Z,11.76
2017-06-15T01:21:34.531Z,11.70
2017-06-15T01:22:28.602Z,11.67
2017-06-15T01:23:28.598Z,11.60
2017-06-15T01:24:22.686Z,11.56
2017-06-15T01:25:11.664Z,11.52
2017-06-15T01:26:11.726Z,11.52
2017-06-15T01:27:00.777Z,11.48
2017-06-15T01:27:48.788Z,11.46
2017-06-15T01:28:43.872Z,11.43
2017-06-15T01:29:39.346Z,11.40
2017-06-15T01:30:27.944Z,11.34
2017-06-15T01:31:16.001Z,11.34
2017-06-15T01:32:05.006Z,11.27
2017-06-15T01:32:53.032Z,11.25
2017-06-15T01:33:41.130Z,11.19
2017-06-15T01:34:30.113Z,11.16
2017-06-15T01:35:18.187Z,11.08
2017-06-15T01:36:06.217Z,11.04
2017-06-15T01:36:55.295Z,11.02
2017-06-15T01:37:43.569Z,10.98
2017-06-15T01:38:31.371Z,10.94
2017-06-15T01:39:20.728Z,10.92
2017-06-15T01:40:08.897Z,10.86
2017-06-15T01:40:56.505Z,10.82
2017-06-15T01:41:51.511Z,10.78
2017-06-15T01:42:40.560Z,10.77
2017-06-15T01:43:28.613Z,10.72
2017-06-15T01:44:28.641Z,10.72
2017-06-15T01:45:23.696Z,10.67
2017-06-15T01:46:23.787Z,10.65
2017-06-15T01:47:18.792Z,10.62
2017-06-15T01:48:13.804Z,10.66
2017-06-15T01:49:14.801Z,10.61
2017-06-15T01:50:14.856Z,10.58
2017-06-15T01:51:08.881Z,10.62
2017-06-15T01:52:02.954Z,10.64
2017-06-15T01:52:50.980Z,10.65
2017-06-15T01:53:40.061Z,10.63
2017-06-15T01:54:28.219Z,10.65
2017-06-15T01:55:22.104Z,10.68
2017-06-15T01:56:22.086Z,10.70
2017-06-15T01:57:22.193Z,10.70
2017-06-15T01:58:22.207Z,10.67
2017-06-15T01:59:28.202Z,10.68
2017-06-15T02:00:22.260Z,10.74
2017-06-15T02:01:17.521Z,10.86
2017-06-15T02:02:06.308Z,10.94
2017-06-15T02:02:54.606Z,11.00
2017-06-15T02:03:55.593Z,11.12
2017-06-15T02:04:50.390Z,11.20
2017-06-15T02:05:44.565Z,11.29
2017-06-15T02:06:33.526Z,11.34
2017-06-15T02:07:21.559Z,11.32
2017-06-15T02:08:10.628Z,11.40
2017-06-15T02:09:04.663Z,11.48
2017-06-15T02:09:53.706Z,11.54
2017-06-15T02:10:41.775Z,11.53
2017-06-15T02:11:30.956Z,11.57
2017-06-15T02:12:18.838Z,11.55
2017-06-15T02:13:06.874Z,11.54
2017-06-15T02:13:55.921Z,11.50
2017-06-15T02:14:44.204Z,11.46
2017-06-15T02:15:32.213Z,11.45
2017-06-15T02:16:21.086Z,11.45
2017-06-15T02:17:09.092Z,11.44
2017-06-15T02:17:57.140Z,11.42
2017-06-15T02:18:46.242Z,11.36
2017-06-15T02:19:34.313Z,11.30
2017-06-15T02:20:22.277Z,11.26
2017-06-15T02:21:11.289Z,11.25
2017-06-15T02:21:59.368Z,11.23
2017-06-15T02:22:47.418Z,11.22
2017-06-15T02:23:41.399Z,11.20
2017-06-15T02:24:30.486Z,11.23
2017-06-15T02:25:19.527Z,11.28
2017-06-15T02:26:19.533Z,11.33
2017-06-15T02:27:14.591Z,11.38
2017-06-15T02:28:02.603Z,11.42
2017-06-15T02:28:51.775Z,11.44
2017-06-15T02:29:45.685Z,11.53
2017-06-15T02:30:40.781Z,11.69
2017-06-15T02:31:35.817Z,11.73
2017-06-15T02:32:24.824Z,11.76
2017-06-15T02:33:18.878Z,11.80
2017-06-15T02:34:06.866Z,11.76
2017-06-15T02:34:54.981Z,11.76
2017-06-15T02:35:49.040Z,11.79
2017-06-15T02:36:43.042Z,11.83
2017-06-15T02:37:31.058Z,11.86
2017-06-15T02:38:19.101Z,11.87
2017-06-15T02:39:07.100Z,11.82
2017-06-15T02:40:01.185Z,11.85
2017-06-15T02:40:55.253Z,11.84
2017-06-15T02:41:50.306Z,11.83
2017-06-15T02:42:38.291Z,11.74
2017-06-15T02:43:39.396Z,11.66
2017-06-15T02:44:28.412Z,11.62
2017-06-15T02:45:17.404Z,11.59
2017-06-15T02:46:12.483Z,11.53
2017-06-15T02:47:06.530Z,11.48
2017-06-15T02:48:01.556Z,11.40
2017-06-15T02:48:50.593Z,11.36
2017-06-15T02:49:45.623Z,11.30
2017-06-15T02:50:40.615Z,11.27
2017-06-15T02:51:34.764Z,11.24
2017-06-15T02:52:29.722Z,11.20
2017-06-15T02:53:18.789Z,11.26
2017-06-15T02:54:12.793Z,11.32
2017-06-15T02:55:06.968Z,11.32
2017-06-15T02:55:55.939Z,11.38
2017-06-15T02:56:51.009Z,11.39
2017-06-15T02:57:40.307Z,11.35
2017-06-15T02:58:28.015Z,11.34
2017-06-15T02:59:16.058Z,11.32
2017-06-15T03:00:05.132Z,11.26
2017-06-15T03:00:53.183Z,11.21
2017-06-15T03:01:41.492Z,11.19
2017-06-15T03:02:30.324Z,11.16
2017-06-15T03:03:18.305Z,11.12
2017-06-15T03:04:06.296Z,11.10
2017-06-15T03:04:55.383Z,11.09
2017-06-15T03:05:44.418Z,11.12
2017-06-15T03:06:39.492Z,11.18
2017-06-15T03:07:39.596Z,11.18
2017-06-15T03:08:34.513Z,11.16
2017-06-15T03:09:29.546Z,11.20
2017-06-15T03:10:29.602Z,11.24
2017-06-15T03:11:35.693Z,11.24
2017-06-15T03:12:30.724Z,11.20
2017-06-15T03:13:24.716Z,11.22
2017-06-15T03:14:24.741Z,11.26
2017-06-15T03:15:19.796Z,11.31
2017-06-15T03:16:19.812Z,11.32
2017-06-15T03:17:14.877Z,11.34
2017-06-15T03:18:08.882Z,11.34
2017-06-15T03:19:09.018Z,11.40
2017-06-15T03:19:56.971Z,11.35
2017-06-15T03:20:51.001Z,11.38
2017-06-15T03:21:39.326Z,11.36
2017-06-15T03:22:27.108Z,11.36
2017-06-15T03:23:15.122Z,11.34
2017-06-15T03:24:10.300Z,11.48
2017-06-15T03:25:10.214Z,11.44
2017-06-15T03:26:10.266Z,11.48
2017-06-15T03:27:04.289Z,11.58
2017-06-15T03:27:58.403Z,11.62
2017-06-15T03:28:52.395Z,11.58
2017-06-15T03:29:41.707Z,11.56
2017-06-15T03:30:29.475Z,11.54
2017-06-15T03:31:17.649Z,11.54
2017-06-15T03:32:05.553Z,11.48
2017-06-15T03:32:54.594Z,11.50
2017-06-15T03:33:42.696Z,11.53
2017-06-15T03:34:31.719Z,11.54
2017-06-15T03:35:19.765Z,11.53
2017-06-15T03:36:07.755Z,11.56
2017-06-15T03:37:07.801Z,11.57
2017-06-15T03:37:55.858Z,11.52
2017-06-15T03:38:44.907Z,11.49
2017-06-15T03:39:44.913Z,11.56
2017-06-15T03:40:33.058Z,11.57
2017-06-15T03:41:28.097Z,11.56
2017-06-15T03:42:17.063Z,11.53
2017-06-15T03:43:06.093Z,11.50
2017-06-15T03:44:00.379Z,11.58
2017-06-15T03:44:55.189Z,11.58
2017-06-15T03:45:55.196Z,11.71
2017-06-15T03:46:50.275Z,11.74
2017-06-15T03:47:45.302Z,11.79
2017-06-15T03:48:39.308Z,11.66
2017-06-15T03:49:40.656Z,11.79
2017-06-15T03:50:34.370Z,11.90
2017-06-15T03:51:22.483Z,11.90
2017-06-15T03:52:22.503Z,11.97
2017-06-15T03:53:17.521Z,12.00
2017-06-15T03:54:12.570Z,12.07
2017-06-15T03:55:07.592Z,12.12
2017-06-15T03:56:01.649Z,12.18
2017-06-15T03:56:55.745Z,12.25
2017-06-15T03:57:55.680Z,12.26
2017-06-15T03:58:50.725Z,12.29
2017-06-15T03:59:45.790Z,12.28
2017-06-15T04:00:34.816Z,12.26
2017-06-15T04:01:34.905Z,12.26
2017-06-15T04:02:34.931Z,12.20
2017-06-15T04:03:22.961Z,12.24
2017-06-15T04:04:12.004Z,12.30
2017-06-15T04:05:07.043Z,12.42
2017-06-15T04:05:56.098Z,12.52
2017-06-15T04:06:50.156Z,12.66
2017-06-15T04:07:50.199Z,12.78
2017-06-15T04:08:39.198Z,12.78
2017-06-15T04:09:28.257Z,12.83
2017-06-15T04:10:16.303Z,12.81
2017-06-15T04:11:10.298Z,12.90
2017-06-15T04:11:59.390Z,12.92
2017-06-15T04:12:48.392Z,12.96
2017-06-15T04:13:43.540Z,12.92
2017-06-15T04:14:43.488Z,12.98
2017-06-15T04:15:43.529Z,12.98
2017-06-15T04:16:37.552Z,12.98
2017-06-15T04:17:25.591Z,13.00
2017-06-15T04:18:13.619Z,12.97
2017-06-15T04:19:02.025Z,12.90
2017-06-15T04:19:50.763Z,13.06
2017-06-15T04:20:44.820Z,13.00
2017-06-15T04:21:50.793Z,13.09
2017-06-15T04:22:38.911Z,13.12
2017-06-15T04:23:39.896Z,13.15
2017-06-15T04:24:34.000Z,13.12
2017-06-15T04:25:28.016Z,13.14
2017-06-15T04:26:23.012Z,13.17
2017-06-15T04:27:12.038Z,13.22
2017-06-15T04:28:07.099Z,13.21
2017-06-15T04:28:56.225Z,13.27
2017-06-15T04:29:56.270Z,13.35
2017-06-15T04:30:44.217Z,13.40
2017-06-15T04:31:44.276Z,13.66
2017-06-15T04:32:38.303Z,13.80
2017-06-15T04:33:32.412Z,14.09
2017-06-15T04:34:26.385Z,14.39
2017-06-15T04:35:20.447Z,14.66
2017-06-15T04:36:15.497Z,15.00
2017-06-15T04:37:15.532Z,15.26
2017-06-15T04:38:04.545Z,15.37
2017-06-15T04:38:59.882Z,15.56
2017-06-15T04:39:54.631Z,15.97
2017-06-15T04:40:54.703Z,16.28
2017-06-15T04:41:43.845Z,16.48
2017-06-15T04:42:37.781Z,16.76
2017-06-15T04:43:26.803Z,17.05
2017-06-15T04:44:14.862Z,17.43
2017-06-15T04:45:02.921Z,17.64
2017-06-15T04:45:57.023Z,17.79
2017-06-15T04:46:51.007Z,18.08
2017-06-15T04:47:45.006Z,18.26
2017-06-15T04:48:40.077Z,18.13
2017-06-15T04:49:34.118Z,18.04
2017-06-15T04:50:40.210Z,18.14
2017-06-15T04:51:41.394Z,18.40
2017-06-15T04:52:35.259Z,18.61
2017-06-15T04:53:35.404Z,18.60
2017-06-15T04:54:24.315Z,18.53
2017-06-15T04:55:24.398Z,18.42
2017-06-15T04:56:19.510Z,18.45
2017-06-15T04:57:14.572Z,18.49
2017-06-15T04:58:03.775Z,18.44
2017-06-15T04:58:58.896Z,18.43
2017-06-15T04:59:52.800Z,18.52
2017-06-15T05:00:52.655Z,18.73
2017-06-15T05:01:46.718Z,18.71
2017-06-15T05:02:47.783Z,18.64
2017-06-15T05:03:41.768Z,18.54
2017-06-15T05:04:30.830Z,18.88
2017-06-15T05:05:30.879Z,18.97
2017-06-15T05:06:24.951Z,19.09
2017-06-15T05:07:19.973Z,19.13
2017-06-15T05:08:14.367Z,19.44
2017-06-15T05:09:08.521Z,19.56
2017-06-15T05:10:02.138Z,19.76
2017-06-15T05:10:57.371Z,19.78
2017-06-15T05:11:46.399Z,19.80
2017-06-15T05:12:34.296Z,20.22
2017-06-15T05:13:29.638Z,20.38
2017-06-15T05:14:30.371Z,20.12
2017-06-15T05:15:25.425Z,19.81
2017-06-15T05:16:25.470Z,19.43
2017-06-15T05:17:20.666Z,19.14
2017-06-15T05:18:14.748Z,18.91
2017-06-15T05:19:09.871Z,18.82
2017-06-15T05:20:08.848Z,18.80
2017-06-15T05:21:08.818Z,18.72
2017-06-15T05:22:03.890Z,18.90
2017-06-15T05:22:58.991Z,19.22
2017-06-15T05:23:59.116Z,19.03
2017-06-15T05:24:54.294Z,18.91
2017-06-15T05:25:48.882Z,18.67
2017-06-15T05:26:55.001Z,18.73
2017-06-15T05:27:48.991Z,18.61
2017-06-15T05:28:49.253Z,18.56
2017-06-15T05:29:43.101Z,18.40
2017-06-15T05:30:37.486Z,18.34
2017-06-15T05:31:32.189Z,18.50
2017-06-15T05:32:27.269Z,18.53
2017-06-15T05:33:21.285Z,18.70
2017-06-15T05:34:16.490Z,18.91
2017-06-15T05:35:05.442Z,19.12
2017-06-15T05:36:00.810Z,19.26
2017-06-15T05:36:54.513Z,19.44
2017-06-15T05:37:48.591Z,19.52
2017-06-15T05:38:36.620Z,19.66
2017-06-15T05:39:36.675Z,19.72
2017-06-15T05:40:31.704Z,19.94
2017-06-15T05:41:27.256Z,20.06
2017-06-15T05:42:15.069Z,20.00
2017-06-15T05:43:15.848Z,20.08
2017-06-15T05:44:16.155Z,20.60
2017-06-15T05:45:11.052Z,20.88
2017-06-15T05:46:00.264Z,21.16
2017-06-15T05:46:54.618Z,21.71
2017-06-15T05:47:48.356Z,21.67
2017-06-15T05:48:42.382Z,21.74
2017-06-15T05:49:31.479Z,21.48
2017-06-15T05:50:26.510Z,21.00
2017-06-15T05:51:20.547Z,21.28
2017-06-15T05:52:20.975Z,21.44
2017-06-15T05:53:14.665Z,21.49
2017-06-15T05:54:15.691Z,21.18
2017-06-15T05:55:15.761Z,21.10
2017-06-15T05:56:10.839Z,21.08
2017-06-15T05:57:10.856Z,20.76
2017-06-15T05:58:06.260Z,20.64
2017-06-15T05:59:01.007Z,20.74
2017-06-15T05:59:55.045Z,20.85
2017-06-15T06:00:55.120Z,20.94
2017-06-15T06:01:49.224Z,21.16
2017-06-15T06:02:50.218Z,21.16
2017-06-15T06:03:50.565Z,21.58
2017-06-15T06:04:45.286Z,21.64
2017-06-15T06:05:39.350Z,21.83
2017-06-15T06:06:28.389Z,22.08
2017-06-15T06:07:23.482Z,22.45
2017-06-15T06:08:18.534Z,22.68
2017-06-15T06:09:13.218Z,22.67
2017-06-15T06:10:07.580Z,22.38
2017-06-15T06:11:07.683Z,21.90
2017-06-15T06:12:01.707Z,21.99
2017-06-15T06:13:07.780Z,22.23
2017-06-15T06:14:01.859Z,21.74
2017-06-15T06:15:02.222Z,21.25
2017-06-15T06:15:50.887Z,21.15
2017-06-15T06:16:45.969Z,21.31
2017-06-15T06:17:40.049Z,21.21
2017-06-15T06:18:35.095Z,21.14
2017-06-15T06:19:24.140Z,21.48
2017-06-15T06:20:19.208Z,21.90
2017-06-15T06:21:13.262Z,22.16
2017-06-15T06:22:14.329Z,22.54
2017-06-15T06:23:08.392Z,22.52
2017-06-15T06:24:03.489Z,22.63
2017-06-15T06:24:52.515Z,22.94
2017-06-15T06:25:52.686Z,23.02
2017-06-15T06:26:52.602Z,23.00
2017-06-15T06:27:47.637Z,23.24
2017-06-15T06:28:47.664Z,23.20
2017-06-15T06:29:42.777Z,23.10
2017-06-15T06:30:36.795Z,22.92
2017-06-15T06:31:31.821Z,22.99
2017-06-15T06:32:26.908Z,23.35
2017-06-15T06:33:21.959Z,23.74
2017-06-15T06:34:17.052Z,23.98
2017-06-15T06:35:12.075Z,23.82
2017-06-15T06:36:06.113Z,24.16
2017-06-15T06:37:06.210Z,24.33
2017-06-15T06:38:06.279Z,24.38
2017-06-15T06:39:06.329Z,23.98
2017-06-15T06:40:00.340Z,23.88
2017-06-15T06:40:55.406Z,24.13
2017-06-15T06:41:50.450Z,23.95
2017-06-15T06:42:38.679Z,24.19
2017-06-15T06:43:33.584Z,24.04
2017-06-15T06:44:34.648Z,23.76
2017-06-15T06:45:28.737Z,23.62
2017-06-15T06:46:28.745Z,23.29
2017-06-15T06:47:23.800Z,22.92
2017-06-15T06:48:18.917Z,22.72
2017-06-15T06:49:07.877Z,22.92
2017-06-15T06:50:03.001Z,23.12
2017-06-15T06:50:58.017Z,23.33
2017-06-15T06:51:59.069Z,23.27
2017-06-15T06:53:00.074Z,22.72
2017-06-15T06:53:54.213Z,22.59
2017-06-15T06:54:54.216Z,22.52
2017-06-15T06:55:49.313Z,22.63
2017-06-15T06:56:43.373Z,23.00
2017-06-15T06:57:37.394Z,23.69
2017-06-15T06:58:32.471Z,23.95
2017-06-15T06:59:27.570Z,24.30
2017-06-15T07:00:16.627Z,24.55
2017-06-15T07:01:16.648Z,24.48
2017-06-15T07:02:11.712Z,24.21
2017-06-15T07:03:05.792Z,24.01
2017-06-15T07:04:05.853Z,24.02
2017-06-15T07:05:05.877Z,23.96
2017-06-15T07:05:59.987Z,23.96
2017-06-15T07:06:54.021Z,24.15
2017-06-15T07:07:54.077Z,24.09
2017-06-15T07:08:48.136Z,23.92
2017-06-15T07:09:43.173Z,24.16
2017-06-15T07:10:44.261Z,24.45
2017-06-15T07:11:44.271Z,24.59
2017-06-15T07:12:39.350Z,24.53
2017-06-15T07:13:34.422Z,24.64
2017-06-15T07:14:29.468Z,24.79
2017-06-15T07:15:23.563Z,24.76
2017-06-15T07:16:17.854Z,24.32
2017-06-15T07:17:17.666Z,24.18
2017-06-15T07:18:12.724Z,24.41
2017-06-15T07:19:07.812Z,24.32
2017-06-15T07:20:01.868Z,24.14
2017-06-15T07:20:55.880Z,24.18
2017-06-15T07:21:49.943Z,24.54
2017-06-15T07:22:50.008Z,24.68
2017-06-15T07:23:44.081Z,25.00
2017-06-15T07:24:39.104Z,25.24
2017-06-15T07:25:34.242Z,25.04
2017-06-15T07:26:29.261Z,24.82
2017-06-15T07:27:18.329Z,24.81
2017-06-15T07:28:07.387Z,25.26
2017-06-15T07:29:01.454Z,25.71
2017-06-15T07:29:55.562Z,25.66
2017-06-15T07:30:49.650Z,25.32
2017-06-15T07:31:38.698Z,25.58
2017-06-15T07:32:38.878Z,25.57
2017-06-15T07:33:38.886Z,25.87
2017-06-15T07:34:32.950Z,25.78
2017-06-15T07:35:27.053Z,25.88
2017-06-15T07:36:16.054Z,26.48
2017-06-15T07:37:11.164Z,26.38
2017-06-15T07:38:12.227Z,26.23
2017-06-15T07:39:07.322Z,26.01
2017-06-15T07:40:07.405Z,25.20
2017-06-15T07:41:02.451Z,24.94
2017-06-15T07:42:02.470Z,24.81
2017-06-15T07:42:51.553Z,24.64
2017-06-15T07:43:51.640Z,24.81
2017-06-15T07:44:51.690Z,25.31
2017-06-15T07:45:45.726Z,25.78
2017-06-15T07:46:39.790Z,26.19
2017-06-15T07:47:33.885Z,26.34
2017-06-15T07:48:34.946Z,26.26
2017-06-15T07:49:30.130Z,26.41
2017-06-15T07:50:25.137Z,26.83
2017-06-15T07:51:25.223Z,26.81
2017-06-15T07:52:19.297Z,26.52
2017-06-15T07:53:08.331Z,26.32
2017-06-15T07:54:08.462Z,26.29
2017-06-15T07:55:03.565Z,26.72
2017-06-15T07:55:58.602Z,27.25
2017-06-15T07:56:46.686Z,27.80
2017-06-15T07:57:41.765Z,28.40
2017-06-15T07:58:35.811Z,29.00
2017-06-15T07:59:24.931Z,29.21
2017-06-15T08:00:19.005Z,29.26
2017-06-15T08:01:19.075Z,29.10
2017-06-15T08:02:19.129Z,29.21
2017-06-15T08:03:14.289Z,28.98
2017-06-15T08:04:08.350Z,28.24
2017-06-15T08:05:08.378Z,27.39
2017-06-15T08:06:08.524Z,27.28
2017-06-15T08:07:09.585Z,27.51
2017-06-15T08:08:09.668Z,27.83
2017-06-15T08:09:10.681Z,27.28
2017-06-15T08:10:04.749Z,27.38
2017-06-15T08:10:58.852Z,27.53
2017-06-15T08:11:47.986Z,27.78
2017-06-15T08:12:42.044Z,27.93
2017-06-15T08:13:37.117Z,28.10
2017-06-15T08:14:32.155Z,28.32
2017-06-15T08:15:26.271Z,28.43
2017-06-15T08:16:21.381Z,28.79
2017-06-15T08:17:15.486Z,29.34
2017-06-15T08:18:09.509Z,29.47
2017-06-15T08:19:04.622Z,29.27
2017-06-15T08:20:04.658Z,28.48
2017-06-15T08:20:58.726Z,28.51
2017-06-15T08:21:52.802Z,28.76
2017-06-15T08:22:41.968Z,28.20
2017-06-15T08:23:35.975Z,28.17
2017-06-15T08:24:25.074Z,28.44
2017-06-15T08:25:25.167Z,28.26
2017-06-15T08:26:20.276Z,27.95
2017-06-15T08:27:20.338Z,27.63
2017-06-15T08:28:15.432Z,27.37
2017-06-15T08:29:04.537Z,27.44
2017-06-15T08:29:58.537Z,27.60
2017-06-15T08:30:58.637Z,27.50
2017-06-15T08:31:52.667Z,27.43
2017-06-15T08:32:41.828Z,27.85
2017-06-15T08:33:30.864Z,28.41
2017-06-15T08:34:24.950Z,28.94
2017-06-15T08:35:20.045Z,29.72
2017-06-15T08:36:09.129Z,30.00
2017-06-15T08:36:58.165Z,30.20
2017-06-15T08:37:47.321Z,30.68
2017-06-15T08:38:41.467Z,30.99
2017-06-15T08:39:41.504Z,31.36
2017-06-15T08:40:47.589Z,31.46
2017-06-15T08:41:47.610Z,31.50
2017-06-15T08:42:41.699Z,31.76
2017-06-15T08:43:30.818Z,31.48
2017-06-15T08:44:19.888Z,31.07
2017-06-15T08:45:08.976Z,31.02
2017-06-15T08:45:58.044Z,31.09
2017-06-15T08:46:52.125Z,30.94
2017-06-15T08:47:46.242Z,30.58
2017-06-15T08:48:35.296Z,30.83
2017-06-15T08:49:30.356Z,30.65
2017-06-15T08:50:25.452Z,30.41
2017-06-15T08:51:20.550Z,30.28
2017-06-15T08:52:09.586Z,30.22
2017-06-15T08:52:58.686Z,30.06
2017-06-15T08:53:53.793Z,30.10
2017-06-15T08:54:53.930Z,29.88
2017-06-15T08:55:47.919Z,29.81
2017-06-15T08:56:42.036Z,29.49
2017-06-15T08:57:37.133Z,29.42
2017-06-15T08:58:32.188Z,29.36
2017-06-15T08:59:26.282Z,29.36
2017-06-15T09:00:14.406Z,29.42
2017-06-15T09:01:08.486Z,29.58
2017-06-15T09:01:57.557Z,30.24
2017-06-15T09:02:52.649Z,30.75
2017-06-15T09:03:47.735Z,31.00
2017-06-15T09:04:41.791Z,31.12
2017-06-15T09:05:30.908Z,30.84
2017-06-15T09:06:24.992Z,31.16
2017-06-15T09:07:20.047Z,31.33
2017-06-15T09:08:14.100Z,31.72
2017-06-15T09:09:03.218Z,31.48
2017-06-15T09:10:03.311Z,31.23
2017-06-15T09:10:57.722Z,31.13
2017-06-15T09:11:51.481Z,31.00
2017-06-15T09:12:51.585Z,31.00
2017-06-15T09:13:45.632Z,30.85
2017-06-15T09:14:39.739Z,30.50
2017-06-15T09:15:28.786Z,30.44
2017-06-15T09:16:22.921Z,30.47
2017-06-15T09:17:17.023Z,30.18
2017-06-15T09:18:11.095Z,29.90
2017-06-15T09:19:00.186Z,29.99
2017-06-15T09:19:54.289Z,30.08
2017-06-15T09:20:49.398Z,30.06
2017-06-15T09:21:38.448Z,30.12
2017-06-15T09:22:27.491Z,29.63
2017-06-15T09:23:22.617Z,29.46
2017-06-15T09:24:16.691Z,29.46
2017-06-15T09:25:04.729Z,29.04
2017-06-15T09:25:58.856Z,29.08
2017-06-15T09:26:53.077Z,29.23
2017-06-15T09:27:46.971Z,29.85
2017-06-15T09:28:35.113Z,29.88
2017-06-15T09:29:29.194Z,29.67
2017-06-15T09:30:29.289Z,29.59
2017-06-15T09:31:24.354Z,29.39
2017-06-15T09:32:12.460Z,29.37
2017-06-15T09:33:06.561Z,29.58
2017-06-15T09:34:00.673Z,29.41
2017-06-15T09:34:55.718Z,29.50
2017-06-15T09:35:49.781Z,29.78
2017-06-15T09:36:38.925Z,30.15
2017-06-15T09:37:27.945Z,30.46
2017-06-15T09:38:23.076Z,30.25
2017-06-15T09:39:18.140Z,30.22
2017-06-15T09:40:13.234Z,30.71
2017-06-15T09:41:08.327Z,31.05
2017-06-15T09:41:57.392Z,31.30
2017-06-15T09:42:58.634Z,31.57
2017-06-15T09:43:52.575Z,31.73
2017-06-15T09:44:46.675Z,31.90
2017-06-15T09:45:47.752Z,32.18
2017-06-15T09:46:47.811Z,32.27
2017-06-15T09:47:36.931Z,32.04
2017-06-15T09:48:32.028Z,32.00
2017-06-15T09:49:26.092Z,31.83
2017-06-15T09:50:14.210Z,31.83
2017-06-15T09:51:08.330Z,31.88
2017-06-15T09:52:03.411Z,31.77
2017-06-15T09:52:52.494Z,31.53
2017-06-15T09:53:41.589Z,31.51
2017-06-15T09:54:41.650Z,31.49
2017-06-15T09:55:36.734Z,31.46
2017-06-15T09:56:30.781Z,31.43
2017-06-15T09:57:19.911Z,31.57
2017-06-15T09:58:08.957Z,31.62
2017-06-15T09:58:57.153Z,31.85
2017-06-15T09:59:46.159Z,32.04
2017-06-15T10:00:35.260Z,31.96
2017-06-15T10:01:29.375Z,31.80
2017-06-15T10:02:23.441Z,31.69
2017-06-15T10:03:12.564Z,31.69
2017-06-15T10:04:07.649Z,31.40
2017-06-15T10:05:01.669Z,31.68
2017-06-15T10:06:01.790Z,31.49
2017-06-15T10:07:01.855Z,30.87
2017-06-15T10:07:56.989Z,30.92
2017-06-15T10:08:45.047Z,31.15
2017-06-15T10:09:45.177Z,31.39
2017-06-15T10:10:45.210Z,31.24
2017-06-15T10:11:39.317Z,31.06
2017-06-15T10:12:33.385Z,30.90
2017-06-15T10:13:22.461Z,31.02
2017-06-15T10:14:11.615Z,30.84
2017-06-15T10:15:05.786Z,30.20
2017-06-15T10:16:05.766Z,29.94
2017-06-15T10:16:54.877Z,29.86
2017-06-15T10:17:48.950Z,29.94
2017-06-15T10:18:48.994Z,29.91
2017-06-15T10:19:43.167Z,29.92
2017-06-15T10:20:37.181Z,30.05
2017-06-15T10:21:32.298Z,30.06
2017-06-15T10:22:21.337Z,30.11
2017-06-15T10:23:21.457Z,30.37
2017-06-15T10:24:21.557Z,30.75
2017-06-15T10:25:21.618Z,31.04
2017-06-15T10:26:10.736Z,31.37
2017-06-15T10:27:04.748Z,31.82
2017-06-15T10:28:04.893Z,32.14
2017-06-15T10:28:54.011Z,32.18
2017-06-15T10:29:48.059Z,32.23
2017-06-15T10:30:48.128Z,32.16
2017-06-15T10:31:43.268Z,32.11
2017-06-15T10:32:43.274Z,32.07
2017-06-15T10:33:38.378Z,31.82
2017-06-15T10:34:27.482Z,31.61
2017-06-15T10:35:27.550Z,31.38
2017-06-15T10:36:27.643Z,31.44
2017-06-15T10:37:27.705Z,31.59
2017-06-15T10:38:27.813Z,31.64
2017-06-15T10:39:16.882Z,31.80
2017-06-15T10:40:05.971Z,31.57
2017-06-15T10:41:00.059Z,31.51
2017-06-15T10:42:00.126Z,31.62
2017-06-15T10:43:00.231Z,31.46
2017-06-15T10:43:55.288Z,31.32
2017-06-15T10:44:50.387Z,31.35
2017-06-15T10:45:39.445Z,31.66
2017-06-15T10:46:27.580Z,31.76
2017-06-15T10:47:16.653Z,31.93
2017-06-15T10:48:16.802Z,32.20
2017-06-15T10:49:10.985Z,32.36
2017-06-15T10:50:04.898Z,32.49
2017-06-15T10:50:53.981Z,32.54
2017-06-15T10:51:49.071Z,32.62
2017-06-15T10:52:44.145Z,32.85
2017-06-15T10:53:33.241Z,32.82
2017-06-15T10:54:28.313Z,32.25
2017-06-15T10:55:23.421Z,31.68
2017-06-15T10:56:23.487Z,31.70
2017-06-15T10:57:17.542Z,31.96
2017-06-15T10:58:12.647Z,32.27
2017-06-15T10:59:08.107Z,32.56
2017-06-15T11:00:02.792Z,32.80
2017-06-15T11:00:50.919Z,32.95
2017-06-15T11:01:39.997Z,32.70
2017-06-15T11:02:34.081Z,32.54
2017-06-15T11:03:28.146Z,32.24
2017-06-15T11:04:23.541Z,32.19
2017-06-15T11:05:23.331Z,32.22
2017-06-15T11:06:24.385Z,32.00
2017-06-15T11:07:18.505Z,32.02
2017-06-15T11:08:06.565Z,31.88
2017-06-15T11:09:00.674Z,31.84
2017-06-15T11:10:01.071Z,31.84
2017-06-15T11:10:55.864Z,31.70
2017-06-15T11:11:55.930Z,31.34
2017-06-15T11:12:55.981Z,31.29
2017-06-15T11:13:50.116Z,31.43
2017-06-15T11:14:44.108Z,31.73
2017-06-15T11:15:33.561Z,31.75
2017-06-15T11:16:22.310Z,31.82
2017-06-15T11:17:17.376Z,31.80
2017-06-15T11:18:05.511Z,31.74
2017-06-15T11:18:53.578Z,31.72
2017-06-15T11:19:42.666Z,31.58
2017-06-15T11:20:38.315Z,31.51
2017-06-15T11:21:31.844Z,31.43
2017-06-15T11:22:19.941Z,31.26
2017-06-15T11:23:14.024Z,31.22
2017-06-15T11:24:08.113Z,31.53
2017-06-15T11:24:56.126Z,32.06
2017-06-15T11:25:45.596Z,32.86
2017-06-15T11:26:34.320Z,33.61
2017-06-15T11:27:29.426Z,34.02
2017-06-15T11:28:29.488Z,34.00
2017-06-15T11:29:23.608Z,34.44
2017-06-15T11:30:12.673Z,34.52
2017-06-15T11:31:07.795Z,34.40
2017-06-15T11:31:56.836Z,34.38